METAR Formatted Surface Weather Observation
Issued by NWS

Home | Current Version | Previous Version | Text Only | Print | Product List | Glossary On
Versions: 1 2 3 4 5 6 7 8 9 10 11 12 13 14 15 16 17 18 19 20 21 22 23
000
SAUS44 KCRP 211558
MTRNGP
METAR KNGP 211556Z 11008KT 10SM FEW015 SCT026 33/25 A3004 RMK AO2
SLP171 TCU DSNT SE AND S T2 SET T03330250



USA.gov is the U.S. government's official web portal to all federal, state and local government web resources and services.